Terminal Aerodrome Forecast
Issued by NWS Jackson, MS

Current Version | Previous Version | Text Only | Print | Product List | Glossary On
Versions: 1 2 3 4 5 6 7 8 9 10 11 12 13
000
FTUS44 KJAN 262340
TAFGWO
TAF
KGWO 262340Z 2700/2724 19005KT P6SM VCSH SCT040
     FM271500 19006KT P6SM SCT035
     FM272000 18006KT P6SM VCTS BKN050CB=

USA.gov is the U.S. government's official web portal to all federal, state and local government web resources and services.